createdAt,value
2019-05-06T00:00:25.573Z,6.10
2019-05-06T00:02:54.661Z,6.20
2019-05-06T00:05:25.432Z,6.30
2019-05-06T00:07:55.118Z,6.20
2019-05-06T00:10:34.263Z,6.00
2019-05-06T00:13:04.622Z,6.10
2019-05-06T00:15:34.274Z,6.10
2019-05-06T00:18:04.496Z,6.10
2019-05-06T00:20:35.008Z,6.20
2019-05-06T00:23:17.454Z,6.30
2019-05-06T00:25:47.746Z,6.20
2019-05-06T00:28:26.992Z,6.20
2019-05-06T00:31:09.476Z,6.20
2019-05-06T00:33:27.779Z,6.20
2019-05-06T00:35:56.380Z,6.30
2019-05-06T00:38:25.025Z,6.30
2019-05-06T00:41:07.537Z,6.20
2019-05-06T00:43:36.319Z,6.40
2019-05-06T00:46:05.166Z,6.40
2019-05-06T00:48:34.301Z,6.30
2019-05-06T00:51:04.565Z,6.30
2019-05-06T00:53:35.282Z,6.30
2019-05-06T00:56:04.520Z,6.30
2019-05-06T00:58:34.835Z,6.30
2019-05-06T01:01:04.638Z,6.20
2019-05-06T01:03:34.727Z,6.30
2019-05-06T01:06:03.977Z,6.30
2019-05-06T01:08:34.921Z,6.30
2019-05-06T01:11:06.078Z,6.30
2019-05-06T01:13:39.444Z,6.30
2019-05-06T01:16:09.265Z,6.30
2019-05-06T01:18:37.973Z,6.20
2019-05-06T01:21:14.520Z,6.30
2019-05-06T01:23:44.827Z,6.20
2019-05-06T01:26:15.143Z,6.20
2019-05-06T01:28:45.750Z,6.20
2019-05-06T01:31:14.693Z,6.20
2019-05-06T01:33:45.332Z,6.20
2019-05-06T01:36:14.264Z,6.00
2019-05-06T01:38:48.646Z,6.20
2019-05-06T01:41:37.310Z,6.20
2019-05-06T01:44:06.413Z,6.20
2019-05-06T01:46:35.126Z,6.10
2019-05-06T01:49:04.381Z,6.00
2019-05-06T01:51:34.827Z,6.10
2019-05-06T01:54:03.929Z,6.10
2019-05-06T01:56:33.710Z,6.20
2019-05-06T01:59:04.592Z,6.00
2019-05-06T02:01:34.180Z,6.10
2019-05-06T02:04:04.421Z,6.10
2019-05-06T02:06:34.441Z,5.90
2019-05-06T02:09:04.747Z,6.00
2019-05-06T02:11:33.836Z,6.00
2019-05-06T02:14:04.734Z,6.00
2019-05-06T02:16:34.347Z,6.00
2019-05-06T02:19:04.095Z,6.00
2019-05-06T02:21:34.747Z,6.20
2019-05-06T02:24:17.528Z,6.10
2019-05-06T02:26:46.281Z,6.20
2019-05-06T02:29:27.791Z,6.20
2019-05-06T02:32:25.304Z,6.20
2019-05-06T02:35:05.193Z,6.20
2019-05-06T02:37:37.841Z,6.10
2019-05-06T02:40:24.241Z,6.10
2019-05-06T02:42:54.397Z,6.10
2019-05-06T02:45:24.008Z,6.10
2019-05-06T02:47:54.013Z,6.10
2019-05-06T02:50:27.243Z,6.10
2019-05-06T02:52:55.931Z,6.10
2019-05-06T02:55:24.639Z,6.20
2019-05-06T02:57:53.867Z,6.10
2019-05-06T03:00:23.807Z,6.00
2019-05-06T03:02:54.214Z,5.90
2019-05-06T03:05:23.820Z,6.10
2019-05-06T03:07:56.986Z,6.10
2019-05-06T03:10:24.677Z,5.90
2019-05-06T03:12:53.891Z,6.10
2019-05-06T03:15:23.998Z,6.00
2019-05-06T03:17:55.353Z,5.90
2019-05-06T03:20:39.652Z,5.90
2019-05-06T03:23:09.952Z,5.80
2019-05-06T03:25:40.284Z,5.80
2019-05-06T03:28:09.065Z,5.90
2019-05-06T03:30:37.797Z,5.90
2019-05-06T03:33:40.198Z,5.80
2019-05-06T03:35:52.066Z,5.80
2019-05-06T03:38:08.900Z,5.80
2019-05-06T03:40:41.840Z,5.70
2019-05-06T03:43:07.954Z,5.80
2019-05-06T03:45:56.484Z,5.80
2019-05-06T03:48:36.895Z,5.80
2019-05-06T03:51:05.677Z,5.80
2019-05-06T03:53:35.862Z,5.80
2019-05-06T03:56:06.531Z,5.70
2019-05-06T03:58:37.772Z,5.80
2019-05-06T04:01:06.535Z,5.90
2019-05-06T04:03:46.939Z,5.80
2019-05-06T04:06:05.571Z,5.80
2019-05-06T04:08:35.245Z,5.90
2019-05-06T04:11:04.026Z,5.80
2019-05-06T04:13:35.044Z,5.90
2019-05-06T04:16:13.786Z,5.80
2019-05-06T04:18:43.916Z,6.00
2019-05-06T04:21:24.277Z,5.90
2019-05-06T04:24:03.840Z,5.80
2019-05-06T04:26:46.441Z,5.90
2019-05-06T04:29:15.180Z,6.00
2019-05-06T04:31:43.872Z,5.90
2019-05-06T04:34:18.210Z,5.90
2019-05-06T04:36:44.205Z,6.00
2019-05-06T04:39:13.593Z,6.00
2019-05-06T04:41:43.292Z,6.00
2019-05-06T04:44:13.798Z,6.10
2019-05-06T04:46:44.314Z,6.20
2019-05-06T04:49:14.986Z,6.10
2019-05-06T04:51:43.855Z,6.20
2019-05-06T04:54:13.349Z,6.20
2019-05-06T04:56:43.833Z,6.10
2019-05-06T04:59:13.921Z,6.10
2019-05-06T05:01:45.692Z,6.30
2019-05-06T05:04:26.843Z,6.20
2019-05-06T05:06:44.301Z,6.30
2019-05-06T05:09:16.626Z,6.40
2019-05-06T05:11:45.712Z,6.40
2019-05-06T05:14:25.602Z,6.30
2019-05-06T05:16:54.188Z,6.40
2019-05-06T05:19:23.122Z,6.70
2019-05-06T05:21:53.583Z,6.80
2019-05-06T05:24:23.524Z,6.80
2019-05-06T05:26:52.410Z,6.70
2019-05-06T05:29:22.888Z,6.70
2019-05-06T05:31:52.995Z,7.00
2019-05-06T05:34:22.451Z,7.00
2019-05-06T05:36:53.328Z,7.00
2019-05-06T05:39:22.339Z,7.00
2019-05-06T05:41:52.510Z,7.00
2019-05-06T05:44:28.822Z,7.10
2019-05-06T05:46:57.637Z,7.30
2019-05-06T05:49:28.052Z,7.40
2019-05-06T05:51:56.939Z,7.50
2019-05-06T05:54:25.673Z,7.60
2019-05-06T05:56:54.453Z,7.90
2019-05-06T05:59:23.391Z,8.10
2019-05-06T06:01:53.050Z,8.40
2019-05-06T06:04:22.608Z,8.80
2019-05-06T06:06:51.984Z,9.00
2019-05-06T06:09:22.637Z,9.00
2019-05-06T06:11:56.915Z,9.50
2019-05-06T06:14:43.755Z,9.60
2019-05-06T06:17:23.507Z,9.50
2019-05-06T06:19:56.571Z,9.00
2019-05-06T06:22:27.395Z,9.10
2019-05-06T06:24:56.140Z,9.80
2019-05-06T06:27:24.884Z,10.20
2019-05-06T06:29:53.655Z,10.40
2019-05-06T06:32:24.077Z,10.00
2019-05-06T06:35:11.431Z,10.00
2019-05-06T06:37:48.334Z,9.10
2019-05-06T06:40:19.055Z,9.00
2019-05-06T06:42:49.477Z,9.90
2019-05-06T06:45:18.259Z,10.80
2019-05-06T06:47:47.737Z,11.00
2019-05-06T06:50:16.505Z,10.80
2019-05-06T06:52:45.485Z,10.50
2019-05-06T06:55:14.262Z,10.40
2019-05-06T06:58:02.705Z,10.60
2019-05-06T07:00:35.720Z,10.90
2019-05-06T07:03:24.240Z,10.20
2019-05-06T07:05:57.296Z,10.00
2019-05-06T07:08:36.607Z,10.10
2019-05-06T07:10:56.466Z,10.50
2019-05-06T07:13:25.172Z,10.60
2019-05-06T07:15:53.845Z,10.00
2019-05-06T07:18:22.715Z,9.80
2019-05-06T07:20:58.479Z,9.70
2019-05-06T07:23:29.112Z,9.40
2019-05-06T07:25:57.872Z,9.60
2019-05-06T07:28:26.655Z,9.40
2019-05-06T07:30:55.922Z,9.50
2019-05-06T07:33:24.525Z,9.60
2019-05-06T07:35:54.157Z,9.70
2019-05-06T07:38:23.455Z,9.60
2019-05-06T07:40:57.332Z,9.60
2019-05-06T07:43:27.668Z,9.20
2019-05-06T07:46:18.677Z,9.10
2019-05-06T07:48:47.765Z,8.90
2019-05-06T07:51:16.593Z,8.90
2019-05-06T07:53:45.336Z,9.10
2019-05-06T07:56:14.191Z,9.30
2019-05-06T07:58:43.886Z,9.30
2019-05-06T08:01:13.573Z,9.40
2019-05-06T08:03:43.002Z,9.20
2019-05-06T08:06:13.244Z,8.90
2019-05-06T08:08:43.344Z,8.50
2019-05-06T08:11:12.575Z,8.40
2019-05-06T08:13:43.516Z,8.60
2019-05-06T08:16:13.066Z,8.40
2019-05-06T08:18:42.678Z,7.90
2019-05-06T08:21:22.240Z,8.00
2019-05-06T08:23:53.734Z,8.00
2019-05-06T08:26:22.654Z,8.00
2019-05-06T08:28:52.592Z,7.90
2019-05-06T08:31:22.749Z,8.00
2019-05-06T08:33:52.351Z,7.80
2019-05-06T08:36:23.109Z,7.80
2019-05-06T08:39:05.688Z,7.80
2019-05-06T08:41:34.425Z,7.80
2019-05-06T08:44:03.250Z,7.90
2019-05-06T08:46:33.138Z,8.00
2019-05-06T08:49:03.356Z,7.90
2019-05-06T08:51:33.750Z,8.00
2019-05-06T08:54:22.830Z,8.00
2019-05-06T08:56:52.327Z,8.40
2019-05-06T08:59:21.382Z,8.00
2019-05-06T09:01:53.432Z,8.10
2019-05-06T09:04:22.758Z,8.10
2019-05-06T09:06:53.430Z,8.00
2019-05-06T09:09:22.503Z,7.90
2019-05-06T09:11:53.507Z,7.80
2019-05-06T09:14:23.230Z,7.60
2019-05-06T09:16:53.857Z,7.90
2019-05-06T09:19:23.468Z,7.80
2019-05-06T09:21:53.375Z,8.10
2019-05-06T09:24:23.219Z,8.30
2019-05-06T09:26:53.753Z,8.40
2019-05-06T09:29:26.737Z,8.90
2019-05-06T09:31:57.153Z,9.60
2019-05-06T09:34:44.805Z,10.50
2019-05-06T09:37:14.412Z,12.50
2019-05-06T09:39:44.788Z,12.90
2019-05-06T09:42:14.637Z,11.70
2019-05-06T09:44:45.116Z,12.60
2019-05-06T09:47:16.033Z,11.10
2019-05-06T09:49:45.112Z,11.90
2019-05-06T09:52:13.887Z,12.80
2019-05-06T09:54:54.405Z,12.20
2019-05-06T09:57:24.795Z,10.20
2019-05-06T09:59:53.528Z,9.40
2019-05-06T10:02:23.049Z,8.90
2019-05-06T10:04:52.374Z,8.50
2019-05-06T10:07:22.555Z,8.20
2019-05-06T10:09:52.620Z,7.80
2019-05-06T10:12:21.626Z,7.50
2019-05-06T10:14:52.585Z,7.60
2019-05-06T10:17:20.797Z,7.90
2019-05-06T10:19:49.584Z,8.20
2019-05-06T10:22:18.252Z,8.80
2019-05-06T10:24:46.949Z,9.00
2019-05-06T10:27:15.696Z,9.30
2019-05-06T10:29:49.264Z,9.30
2019-05-06T10:32:19.580Z,9.50
2019-05-06T10:34:48.279Z,9.70
2019-05-06T10:37:24.442Z,10.40
2019-05-06T10:40:17.656Z,11.00
2019-05-06T10:42:55.126Z,10.70
2019-05-06T10:45:28.730Z,10.40
2019-05-06T10:47:58.105Z,10.40
2019-05-06T10:50:28.530Z,10.80
2019-05-06T10:53:07.643Z,10.70
2019-05-06T10:55:38.057Z,11.00
2019-05-06T10:58:06.824Z,11.00
2019-05-06T11:00:35.682Z,10.40
2019-05-06T11:03:12.090Z,11.30
2019-05-06T11:05:39.925Z,11.80
2019-05-06T11:08:08.671Z,11.00
2019-05-06T11:10:41.343Z,10.60
2019-05-06T11:13:08.522Z,10.60
2019-05-06T11:15:37.303Z,10.30
2019-05-06T11:18:06.282Z,10.20
2019-05-06T11:20:35.045Z,10.00
2019-05-06T11:23:03.814Z,9.90
2019-05-06T11:25:32.567Z,9.60
2019-05-06T11:28:02.985Z,9.20
2019-05-06T11:30:39.104Z,9.00
2019-05-06T11:33:18.544Z,9.40
2019-05-06T11:35:48.852Z,9.90
2019-05-06T11:38:18.874Z,10.00
2019-05-06T11:41:07.467Z,9.70
2019-05-06T11:43:36.179Z,9.50
2019-05-06T11:46:04.853Z,9.60
2019-05-06T11:48:34.655Z,9.20
2019-05-06T11:51:05.058Z,9.50
2019-05-06T11:53:33.677Z,9.40
2019-05-06T11:56:03.519Z,9.30
2019-05-06T11:58:42.885Z,9.20
2019-05-06T12:01:13.486Z,9.00
2019-05-06T12:03:42.699Z,9.10
2019-05-06T12:06:13.054Z,9.10
2019-05-06T12:08:43.309Z,9.30
2019-05-06T12:11:12.709Z,9.20
2019-05-06T12:13:42.600Z,9.00
2019-05-06T12:16:14.076Z,9.20
2019-05-06T12:18:42.400Z,9.10
2019-05-06T12:21:18.107Z,9.00
2019-05-06T12:23:44.895Z,9.30
2019-05-06T12:26:13.248Z,9.10
2019-05-06T12:28:43.573Z,9.10
2019-05-06T12:31:12.784Z,9.40
2019-05-06T12:33:43.195Z,9.70
2019-05-06T12:36:15.204Z,9.80
2019-05-06T12:39:06.418Z,10.00
2019-05-06T12:41:33.857Z,10.20
2019-05-06T12:44:03.294Z,9.70
2019-05-06T12:46:34.181Z,10.30
2019-05-06T12:49:03.257Z,9.90
2019-05-06T12:51:32.375Z,10.10
2019-05-06T12:54:03.530Z,9.90
2019-05-06T12:56:31.636Z,9.70
2019-05-06T12:59:02.172Z,9.60
2019-05-06T13:01:45.698Z,8.70
2019-05-06T13:04:13.778Z,8.40
2019-05-06T13:06:46.202Z,8.10
2019-05-06T13:09:13.940Z,8.30
2019-05-06T13:11:43.246Z,8.30
2019-05-06T13:14:12.697Z,8.30
2019-05-06T13:16:42.555Z,8.30
2019-05-06T13:19:12.104Z,8.30
2019-05-06T13:21:42.304Z,8.00
2019-05-06T13:24:12.112Z,8.00
2019-05-06T13:26:43.135Z,8.20
2019-05-06T13:29:25.603Z,8.30
2019-05-06T13:31:54.211Z,8.30
2019-05-06T13:34:23.478Z,8.20
2019-05-06T13:36:53.249Z,8.00
2019-05-06T13:39:23.682Z,8.00
2019-05-06T13:41:52.975Z,8.40
2019-05-06T13:44:22.872Z,8.60
2019-05-06T13:46:53.456Z,9.10
2019-05-06T13:49:24.036Z,9.00
2019-05-06T13:51:56.742Z,9.20
2019-05-06T13:54:25.470Z,9.30
2019-05-06T13:56:54.146Z,9.50
2019-05-06T13:59:23.733Z,9.80
2019-05-06T14:02:15.887Z,10.00
2019-05-06T14:04:44.324Z,9.80
2019-05-06T14:07:13.235Z,9.90
2019-05-06T14:09:43.674Z,9.90
2019-05-06T14:12:12.451Z,10.10
2019-05-06T14:14:43.225Z,10.30
2019-05-06T14:17:12.714Z,10.20
2019-05-06T14:19:42.953Z,10.90
2019-05-06T14:22:12.598Z,11.80
2019-05-06T14:24:43.332Z,12.60
2019-05-06T14:27:12.570Z,11.20
2019-05-06T14:29:42.838Z,11.00
2019-05-06T14:32:12.316Z,11.10
2019-05-06T14:34:43.310Z,11.00
2019-05-06T14:37:12.384Z,11.10
2019-05-06T14:39:52.695Z,11.40
2019-05-06T14:42:13.681Z,12.20
2019-05-06T14:44:43.047Z,11.60
2019-05-06T14:47:19.938Z,10.10
2019-05-06T14:49:48.551Z,10.30
2019-05-06T14:52:17.210Z,10.70
2019-05-06T14:54:49.911Z,10.50
2019-05-06T14:57:19.287Z,10.50
2019-05-06T14:59:50.891Z,10.10
2019-05-06T15:02:25.406Z,10.30
2019-05-06T15:04:50.464Z,10.10
2019-05-06T15:07:19.302Z,10.00
2019-05-06T15:09:58.483Z,9.90
2019-05-06T15:12:18.255Z,10.00
2019-05-06T15:14:46.970Z,9.90
2019-05-06T15:17:15.710Z,10.20
2019-05-06T15:19:44.413Z,10.30
2019-05-06T15:22:13.160Z,10.40
2019-05-06T15:24:42.689Z,10.10
2019-05-06T15:27:12.048Z,9.90
2019-05-06T15:29:42.917Z,10.10
2019-05-06T15:32:13.230Z,9.90
2019-05-06T15:34:46.319Z,9.80
2019-05-06T15:37:25.974Z,9.80
2019-05-06T15:39:54.707Z,9.90
2019-05-06T15:42:23.449Z,9.60
2019-05-06T15:44:52.116Z,9.50
2019-05-06T15:47:22.729Z,9.40
2019-05-06T15:49:52.662Z,9.30
2019-05-06T15:52:23.523Z,9.40
2019-05-06T15:54:52.614Z,9.30
2019-05-06T15:57:22.932Z,9.30
2019-05-06T15:59:53.047Z,9.20
2019-05-06T16:02:23.288Z,9.20
2019-05-06T16:04:52.169Z,9.30
2019-05-06T16:07:25.671Z,9.20
2019-05-06T16:09:54.987Z,9.30
2019-05-06T16:12:22.135Z,9.20
2019-05-06T16:14:53.076Z,9.10
2019-05-06T16:17:23.609Z,9.10
2019-05-06T16:19:51.652Z,8.90
2019-05-06T16:22:22.411Z,8.90
2019-05-06T16:25:04.268Z,9.00
2019-05-06T16:27:32.875Z,8.90
2019-05-06T16:30:03.466Z,8.90
2019-05-06T16:32:33.207Z,8.80
2019-05-06T16:35:02.173Z,8.90
2019-05-06T16:37:32.863Z,8.90
2019-05-06T16:40:02.839Z,9.00
2019-05-06T16:42:32.098Z,9.10
2019-05-06T16:45:06.494Z,9.10
2019-05-06T16:47:37.698Z,9.10
2019-05-06T16:50:09.152Z,9.10
2019-05-06T16:52:37.889Z,8.90
2019-05-06T16:55:10.614Z,9.00
2019-05-06T16:57:39.577Z,8.90
2019-05-06T17:00:11.241Z,8.90
2019-05-06T17:02:58.819Z,8.90
2019-05-06T17:05:37.508Z,8.90
2019-05-06T17:08:06.283Z,8.70
2019-05-06T17:10:34.884Z,8.70
2019-05-06T17:13:03.656Z,8.70
2019-05-06T17:15:32.860Z,8.60
2019-05-06T17:18:03.048Z,8.70
2019-05-06T17:20:32.726Z,8.70
2019-05-06T17:23:02.900Z,8.70
2019-05-06T17:25:33.472Z,8.80
2019-05-06T17:28:03.945Z,8.60
2019-05-06T17:30:34.256Z,8.60
2019-05-06T17:33:22.446Z,8.60
2019-05-06T17:35:52.141Z,8.60
2019-05-06T17:38:22.728Z,8.50
2019-05-06T17:40:52.438Z,8.60
2019-05-06T17:43:22.540Z,8.40
2019-05-06T17:46:01.339Z,8.50
2019-05-06T17:48:29.178Z,8.40
2019-05-06T17:51:05.275Z,8.50
2019-05-06T17:53:34.392Z,8.40
2019-05-06T17:56:05.064Z,8.40
2019-05-06T17:58:33.671Z,8.50
2019-05-06T18:01:03.296Z,8.50
2019-05-06T18:03:32.719Z,8.40
2019-05-06T18:06:07.283Z,8.50
2019-05-06T18:08:33.475Z,8.30
2019-05-06T18:11:02.334Z,8.40
2019-05-06T18:13:31.004Z,8.50
2019-05-06T18:15:59.637Z,8.50
2019-05-06T18:19:04.891Z,8.50
2019-05-06T18:21:33.580Z,8.30
2019-05-06T18:24:02.992Z,8.40
2019-05-06T18:26:33.361Z,8.40
2019-05-06T18:29:02.212Z,8.30
2019-05-06T18:31:32.903Z,8.30
2019-05-06T18:34:03.252Z,8.30
2019-05-06T18:36:32.245Z,8.40
2019-05-06T18:39:03.157Z,8.30
2019-05-06T18:41:32.934Z,8.20
2019-05-06T18:44:01.692Z,8.30
2019-05-06T18:46:32.361Z,8.10
2019-05-06T18:49:02.571Z,8.10
2019-05-06T18:51:31.502Z,8.10
2019-05-06T18:54:02.910Z,8.00
2019-05-06T18:56:32.323Z,8.10
2019-05-06T18:59:02.893Z,8.00
2019-05-06T19:01:32.792Z,8.00
2019-05-06T19:04:09.671Z,8.00
2019-05-06T19:06:38.286Z,8.10
2019-05-06T19:09:18.360Z,8.00
2019-05-06T19:11:47.064Z,8.00
2019-05-06T19:14:15.837Z,7.90
2019-05-06T19:16:49.842Z,8.00
2019-05-06T19:19:14.862Z,8.00
2019-05-06T19:21:43.577Z,7.90
2019-05-06T19:24:12.380Z,8.00
2019-05-06T19:26:42.797Z,7.90
2019-05-06T19:29:12.285Z,8.00
2019-05-06T19:31:44.771Z,7.90
2019-05-06T19:34:12.914Z,7.90
2019-05-06T19:36:42.281Z,8.00
2019-05-06T19:39:12.736Z,7.90
2019-05-06T19:41:41.691Z,7.90
2019-05-06T19:44:12.733Z,7.80
2019-05-06T19:46:42.414Z,7.80
2019-05-06T19:49:11.253Z,7.80
2019-05-06T19:51:39.872Z,7.80
2019-05-06T19:54:08.554Z,7.80
2019-05-06T19:56:37.162Z,7.80
2019-05-06T19:59:06.217Z,7.70
2019-05-06T20:01:34.866Z,7.60
2019-05-06T20:04:03.733Z,7.70
2019-05-06T20:06:45.861Z,7.70
2019-05-06T20:09:22.481Z,7.60
2019-05-06T20:11:52.746Z,7.50
2019-05-06T20:14:22.009Z,7.50
2019-05-06T20:16:52.861Z,7.50
2019-05-06T20:19:33.316Z,7.50
2019-05-06T20:22:02.000Z,7.40
2019-05-06T20:24:33.066Z,7.30
2019-05-06T20:27:02.330Z,7.30
2019-05-06T20:29:32.978Z,7.30
2019-05-06T20:32:01.491Z,7.30
2019-05-06T20:34:32.005Z,7.30
2019-05-06T20:37:02.103Z,7.20
2019-05-06T20:39:32.258Z,7.20
2019-05-06T20:42:02.864Z,7.20
2019-05-06T20:44:32.520Z,7.10
2019-05-06T20:47:03.064Z,7.00
2019-05-06T20:49:33.327Z,6.90
2019-05-06T20:52:02.052Z,6.80
2019-05-06T20:54:32.515Z,6.60
2019-05-06T20:57:02.608Z,6.60
2019-05-06T20:59:32.188Z,6.50
2019-05-06T21:02:02.959Z,6.50
2019-05-06T21:04:32.408Z,6.30
2019-05-06T21:07:02.746Z,6.30
2019-05-06T21:09:32.086Z,6.20
2019-05-06T21:12:00.956Z,6.20
2019-05-06T21:14:29.569Z,6.10
2019-05-06T21:16:58.416Z,6.00
2019-05-06T21:19:27.089Z,5.90
2019-05-06T21:21:56.921Z,5.80
2019-05-06T21:24:25.608Z,5.80
2019-05-06T21:26:54.288Z,5.80
2019-05-06T21:29:23.288Z,5.70
2019-05-06T21:31:53.066Z,5.60
2019-05-06T21:34:22.412Z,5.60
2019-05-06T21:36:53.178Z,5.50
2019-05-06T21:39:22.427Z,5.60
2019-05-06T21:41:52.156Z,5.50
2019-05-06T21:44:22.802Z,5.40
2019-05-06T21:46:53.787Z,5.40
2019-05-06T21:49:23.039Z,5.30
2019-05-06T21:51:51.701Z,5.30
2019-05-06T21:54:20.311Z,5.30
2019-05-06T21:56:49.047Z,5.20
2019-05-06T21:59:17.797Z,5.20
2019-05-06T22:01:46.621Z,5.10
2019-05-06T22:04:15.517Z,5.10
2019-05-06T22:06:45.547Z,5.00
2019-05-06T22:09:14.849Z,4.90
2019-05-06T22:11:43.449Z,4.90
2019-05-06T22:14:12.478Z,4.80
2019-05-06T22:16:43.506Z,4.80
2019-05-06T22:19:12.115Z,4.70
2019-05-06T22:21:42.685Z,4.80
2019-05-06T22:24:13.060Z,4.80
2019-05-06T22:26:43.100Z,4.70
2019-05-06T22:29:12.775Z,4.60
2019-05-06T22:31:42.323Z,4.60
2019-05-06T22:34:11.004Z,4.60
2019-05-06T22:36:39.633Z,4.50
2019-05-06T22:39:08.782Z,4.40
2019-05-06T22:41:37.433Z,4.40
2019-05-06T22:44:13.585Z,4.40
2019-05-06T22:46:36.373Z,4.40
2019-05-06T22:49:19.198Z,4.40
2019-05-06T22:51:47.886Z,4.40
2019-05-06T22:54:16.495Z,4.30
2019-05-06T22:56:46.126Z,4.20
2019-05-06T22:59:14.748Z,4.10
2019-05-06T23:01:45.281Z,4.20
2019-05-06T23:04:15.622Z,4.20
2019-05-06T23:06:44.317Z,4.20
2019-05-06T23:09:13.065Z,4.10
2019-05-06T23:11:42.457Z,4.20
2019-05-06T23:14:12.480Z,4.10
2019-05-06T23:16:42.459Z,4.10
2019-05-06T23:19:11.492Z,4.00
2019-05-06T23:21:40.088Z,4.00
2019-05-06T23:24:08.892Z,4.00
2019-05-06T23:26:37.576Z,3.90
2019-05-06T23:29:06.276Z,4.00
2019-05-06T23:31:34.883Z,4.00
2019-05-06T23:34:05.213Z,3.90
2019-05-06T23:36:52.846Z,3.90
2019-05-06T23:39:59.682Z,3.90
2019-05-06T23:43:04.755Z,3.90
2019-05-06T23:46:11.599Z,3.90
2019-05-06T23:49:16.535Z,3.80
2019-05-06T23:52:22.730Z,3.90
2019-05-06T23:55:08.793Z,3.80
2019-05-06T23:57:36.416Z,3.90
